sensor_id;sensor_type;location;lat;lon;timestamp;P1;P2;P0
78063;PMS5003;67429;51.596;-3.264;2023-05-29T00:02:02;27;26;
78063;PMS5003;67429;51.596;-3.264;2023-05-29T00:04:27;26;24;
78063;PMS5003;67429;51.596;-3.264;2023-05-29T00:06:53;24;23;
78063;PMS5003;67429;51.596;-3.264;2023-05-29T00:09:17;21;19;
78063;PMS5003;67429;51.596;-3.264;2023-05-29T00:11:43;18;17;
78063;PMS5003;67429;51.596;-3.264;2023-05-29T00:14:09;16;15;
78063;PMS5003;67429;51.596;-3.264;2023-05-29T00:16:34;15;13;
78063;PMS5003;67429;51.596;-3.264;2023-05-29T00:19:00;14;13;
78063;PMS5003;67429;51.596;-3.264;2023-05-29T00:21:26;14;14;
78063;PMS5003;67429;51.596;-3.264;2023-05-29T00:23:51;10;10;
78063;PMS5003;67429;51.596;-3.264;2023-05-29T00:26:16;17;16;
78063;PMS5003;67429;51.596;-3.264;2023-05-29T00:28:42;13;13;
78063;PMS5003;67429;51.596;-3.264;2023-05-29T00:31:07;12;11;
78063;PMS5003;67429;51.596;-3.264;2023-05-29T00:33:32;12;11;
78063;PMS5003;67429;51.596;-3.264;2023-05-29T00:35:58;13;13;
78063;PMS5003;67429;51.596;-3.264;2023-05-29T00:38:23;11;11;
78063;PMS5003;67429;51.596;-3.264;2023-05-29T00:40:49;10;10;
78063;PMS5003;67429;51.596;-3.264;2023-05-29T00:43:14;11;10;
78063;PMS5003;67429;51.596;-3.264;2023-05-29T00:45:39;11;11;
78063;PMS5003;67429;51.596;-3.264;2023-05-29T00:48:05;8;8;
78063;PMS5003;67429;51.596;-3.264;2023-05-29T00:50:30;10;10;
78063;PMS5003;67429;51.596;-3.264;2023-05-29T00:52:56;11;11;
78063;PMS5003;67429;51.596;-3.264;2023-05-29T00:55:21;14;12;
78063;PMS5003;67429;51.596;-3.264;2023-05-29T00:57:47;9;9;
78063;PMS5003;67429;51.596;-3.264;2023-05-29T01:00:12;12;12;
78063;PMS5003;67429;51.596;-3.264;2023-05-29T01:02:37;8;8;
78063;PMS5003;67429;51.596;-3.264;2023-05-29T01:05:03;8;8;
78063;PMS5003;67429;51.596;-3.264;2023-05-29T01:07:29;7;7;
78063;PMS5003;67429;51.596;-3.264;2023-05-29T01:09:54;9;8;
78063;PMS5003;67429;51.596;-3.264;2023-05-29T01:12:25;14;12;
78063;PMS5003;67429;51.596;-3.264;2023-05-29T01:14:48;10;10;
78063;PMS5003;67429;51.596;-3.264;2023-05-29T01:17:12;10;9;
78063;PMS5003;67429;51.596;-3.264;2023-05-29T01:19:42;11;11;
78063;PMS5003;67429;51.596;-3.264;2023-05-29T01:22:04;9;8;
78063;PMS5003;67429;51.596;-3.264;2023-05-29T01:24:31;8;8;
78063;PMS5003;67429;51.596;-3.264;2023-05-29T01:26:54;8;8;
78063;PMS5003;67429;51.596;-3.264;2023-05-29T01:29:19;9;9;
78063;PMS5003;67429;51.596;-3.264;2023-05-29T01:31:44;10;9;
78063;PMS5003;67429;51.596;-3.264;2023-05-29T01:34:10;8;7;
78063;PMS5003;67429;51.596;-3.264;2023-05-29T01:36:36;7;7;
78063;PMS5003;67429;51.596;-3.264;2023-05-29T01:39:01;7;7;
78063;PMS5003;67429;51.596;-3.264;2023-05-29T01:41:26;8;7;
78063;PMS5003;67429;51.596;-3.264;2023-05-29T01:43:52;8;6;
78063;PMS5003;67429;51.596;-3.264;2023-05-29T01:46:17;9;8;
78063;PMS5003;67429;51.596;-3.264;2023-05-29T01:48:43;11;8;
78063;PMS5003;67429;51.596;-3.264;2023-05-29T01:51:08;10;7;
78063;PMS5003;67429;51.596;-3.264;2023-05-29T01:53:34;9;8;
78063;PMS5003;67429;51.596;-3.264;2023-05-29T01:56:00;8;8;
78063;PMS5003;67429;51.596;-3.264;2023-05-29T01:58:25;7;6;
78063;PMS5003;67429;51.596;-3.264;2023-05-29T02:00:50;4;4;
78063;PMS5003;67429;51.596;-3.264;2023-05-29T02:03:16;6;6;
78063;PMS5003;67429;51.596;-3.264;2023-05-29T02:05:42;6;5;
78063;PMS5003;67429;51.596;-3.264;2023-05-29T02:08:08;8;6;
78063;PMS5003;67429;51.596;-3.264;2023-05-29T02:10:33;4;4;
78063;PMS5003;67429;51.596;-3.264;2023-05-29T02:12:58;5;4;
78063;PMS5003;67429;51.596;-3.264;2023-05-29T02:15:24;6;5;
78063;PMS5003;67429;51.596;-3.264;2023-05-29T02:17:50;5;5;
78063;PMS5003;67429;51.596;-3.264;2023-05-29T02:20:15;4;4;
78063;PMS5003;67429;51.596;-3.264;2023-05-29T02:22:41;6;5;
78063;PMS5003;67429;51.596;-3.264;2023-05-29T02:25:07;4;4;
78063;PMS5003;67429;51.596;-3.264;2023-05-29T02:27:32;7;7;
78063;PMS5003;67429;51.596;-3.264;2023-05-29T02:29:58;3;3;
78063;PMS5003;67429;51.596;-3.264;2023-05-29T02:32:23;8;7;
78063;PMS5003;67429;51.596;-3.264;2023-05-29T02:34:50;6;5;
78063;PMS5003;67429;51.596;-3.264;2023-05-29T02:37:15;4;4;
78063;PMS5003;67429;51.596;-3.264;2023-05-29T02:39:40;5;4;
78063;PMS5003;67429;51.596;-3.264;2023-05-29T02:42:06;6;5;
78063;PMS5003;67429;51.596;-3.264;2023-05-29T02:44:32;4;4;
78063;PMS5003;67429;51.596;-3.264;2023-05-29T02:46:58;4;4;
78063;PMS5003;67429;51.596;-3.264;2023-05-29T02:49:23;5;4;
78063;PMS5003;67429;51.596;-3.264;2023-05-29T02:51:48;6;5;
78063;PMS5003;67429;51.596;-3.264;2023-05-29T02:54:14;4;4;
78063;PMS5003;67429;51.596;-3.264;2023-05-29T02:56:40;6;6;
78063;PMS5003;67429;51.596;-3.264;2023-05-29T02:59:05;5;4;
78063;PMS5003;67429;51.596;-3.264;2023-05-29T03:01:31;4;4;
78063;PMS5003;67429;51.596;-3.264;2023-05-29T03:03:56;6;5;
78063;PMS5003;67429;51.596;-3.264;2023-05-29T03:06:22;7;5;
78063;PMS5003;67429;51.596;-3.264;2023-05-29T03:08:49;4;4;
78063;PMS5003;67429;51.596;-3.264;2023-05-29T03:11:13;4;4;
78063;PMS5003;67429;51.596;-3.264;2023-05-29T03:13:39;5;5;
78063;PMS5003;67429;51.596;-3.264;2023-05-29T03:16:05;5;5;
78063;PMS5003;67429;51.596;-3.264;2023-05-29T03:18:30;6;5;
78063;PMS5003;67429;51.596;-3.264;2023-05-29T03:20:56;5;4;
78063;PMS5003;67429;51.596;-3.264;2023-05-29T03:23:22;5;5;
78063;PMS5003;67429;51.596;-3.264;2023-05-29T03:25:47;4;4;
78063;PMS5003;67429;51.596;-3.264;2023-05-29T03:28:13;5;5;
78063;PMS5003;67429;51.596;-3.264;2023-05-29T03:30:39;5;5;
78063;PMS5003;67429;51.596;-3.264;2023-05-29T03:33:04;3;3;
78063;PMS5003;67429;51.596;-3.264;2023-05-29T03:35:30;4;4;
78063;PMS5003;67429;51.596;-3.264;2023-05-29T03:37:56;4;3;
78063;PMS5003;67429;51.596;-3.264;2023-05-29T03:40:21;5;5;
78063;PMS5003;67429;51.596;-3.264;2023-05-29T03:42:47;3;3;
78063;PMS5003;67429;51.596;-3.264;2023-05-29T03:45:13;6;5;
78063;PMS5003;67429;51.596;-3.264;2023-05-29T03:47:38;5;5;
78063;PMS5003;67429;51.596;-3.264;2023-05-29T03:50:04;9;9;
78063;PMS5003;67429;51.596;-3.264;2023-05-29T03:52:30;5;4;
78063;PMS5003;67429;51.596;-3.264;2023-05-29T03:54:55;3;3;
78063;PMS5003;67429;51.596;-3.264;2023-05-29T03:57:21;4;4;
78063;PMS5003;67429;51.596;-3.264;2023-05-29T03:59:47;4;4;
78063;PMS5003;67429;51.596;-3.264;2023-05-29T04:02:13;4;4;
78063;PMS5003;67429;51.596;-3.264;2023-05-29T04:04:38;6;4;
78063;PMS5003;67429;51.596;-3.264;2023-05-29T04:07:04;6;5;
78063;PMS5003;67429;51.596;-3.264;2023-05-29T04:09:30;5;5;
78063;PMS5003;67429;51.596;-3.264;2023-05-29T04:11:55;4;4;
78063;PMS5003;67429;51.596;-3.264;2023-05-29T04:14:21;4;3;
78063;PMS5003;67429;51.596;-3.264;2023-05-29T04:16:46;5;5;
78063;PMS5003;67429;51.596;-3.264;2023-05-29T04:19:13;3;3;
78063;PMS5003;67429;51.596;-3.264;2023-05-29T04:21:38;5;5;
78063;PMS5003;67429;51.596;-3.264;2023-05-29T04:24:03;6;6;
78063;PMS5003;67429;51.596;-3.264;2023-05-29T04:26:29;9;8;
78063;PMS5003;67429;51.596;-3.264;2023-05-29T04:28:55;4;4;
78063;PMS5003;67429;51.596;-3.264;2023-05-29T04:31:21;3;3;
78063;PMS5003;67429;51.596;-3.264;2023-05-29T04:33:46;9;4;
78063;PMS5003;67429;51.596;-3.264;2023-05-29T04:36:13;5;5;
78063;PMS5003;67429;51.596;-3.264;2023-05-29T04:38:38;6;5;
78063;PMS5003;67429;51.596;-3.264;2023-05-29T04:41:03;3;3;
78063;PMS5003;67429;51.596;-3.264;2023-05-29T04:43:29;8;6;
78063;PMS5003;67429;51.596;-3.264;2023-05-29T04:45:54;5;5;
78063;PMS5003;67429;51.596;-3.264;2023-05-29T04:48:21;6;5;
78063;PMS5003;67429;51.596;-3.264;2023-05-29T04:50:46;4;4;
78063;PMS5003;67429;51.596;-3.264;2023-05-29T04:53:12;4;3;
78063;PMS5003;67429;51.596;-3.264;2023-05-29T04:55:37;5;5;
78063;PMS5003;67429;51.596;-3.264;2023-05-29T04:58:03;4;4;
78063;PMS5003;67429;51.596;-3.264;2023-05-29T05:00:29;4;4;
78063;PMS5003;67429;51.596;-3.264;2023-05-29T05:02:54;5;4;
78063;PMS5003;67429;51.596;-3.264;2023-05-29T05:05:21;4;4;
78063;PMS5003;67429;51.596;-3.264;2023-05-29T05:07:46;10;9;
78063;PMS5003;67429;51.596;-3.264;2023-05-29T05:10:13;6;6;
78063;PMS5003;67429;51.596;-3.264;2023-05-29T05:12:37;8;6;
78063;PMS5003;67429;51.596;-3.264;2023-05-29T05:15:03;6;5;
78063;PMS5003;67429;51.596;-3.264;2023-05-29T05:17:28;6;5;
78063;PMS5003;67429;51.596;-3.264;2023-05-29T05:19:54;4;4;
78063;PMS5003;67429;51.596;-3.264;2023-05-29T05:22:20;5;5;
78063;PMS5003;67429;51.596;-3.264;2023-05-29T05:24:46;6;6;
78063;PMS5003;67429;51.596;-3.264;2023-05-29T05:27:11;5;5;
78063;PMS5003;67429;51.596;-3.264;2023-05-29T05:29:37;6;5;
78063;PMS5003;67429;51.596;-3.264;2023-05-29T05:32:03;4;4;
78063;PMS5003;67429;51.596;-3.264;2023-05-29T05:34:28;4;4;
78063;PMS5003;67429;51.596;-3.264;2023-05-29T05:36:54;5;5;
78063;PMS5003;67429;51.596;-3.264;2023-05-29T05:39:20;4;4;
78063;PMS5003;67429;51.596;-3.264;2023-05-29T05:41:45;5;4;
78063;PMS5003;67429;51.596;-3.264;2023-05-29T05:44:11;7;6;
78063;PMS5003;67429;51.596;-3.264;2023-05-29T05:46:36;5;5;
78063;PMS5003;67429;51.596;-3.264;2023-05-29T05:49:02;6;4;
78063;PMS5003;67429;51.596;-3.264;2023-05-29T05:51:28;6;6;
78063;PMS5003;67429;51.596;-3.264;2023-05-29T05:53:53;6;6;
78063;PMS5003;67429;51.596;-3.264;2023-05-29T05:56:19;4;4;
78063;PMS5003;67429;51.596;-3.264;2023-05-29T05:58:45;5;5;
78063;PMS5003;67429;51.596;-3.264;2023-05-29T06:01:11;7;6;
78063;PMS5003;67429;51.596;-3.264;2023-05-29T06:03:36;5;5;
78063;PMS5003;67429;51.596;-3.264;2023-05-29T06:06:02;6;5;
78063;PMS5003;67429;51.596;-3.264;2023-05-29T06:08:28;5;4;
78063;PMS5003;67429;51.596;-3.264;2023-05-29T06:10:53;5;5;
78063;PMS5003;67429;51.596;-3.264;2023-05-29T06:13:19;5;5;
78063;PMS5003;67429;51.596;-3.264;2023-05-29T06:15:45;5;5;
78063;PMS5003;67429;51.596;-3.264;2023-05-29T06:18:10;7;7;
78063;PMS5003;67429;51.596;-3.264;2023-05-29T06:20:35;6;6;
78063;PMS5003;67429;51.596;-3.264;2023-05-29T06:23:01;4;4;
78063;PMS5003;67429;51.596;-3.264;2023-05-29T06:25:26;6;5;
78063;PMS5003;67429;51.596;-3.264;2023-05-29T06:27:52;5;5;
78063;PMS5003;67429;51.596;-3.264;2023-05-29T06:30:18;4;3;
78063;PMS5003;67429;51.596;-3.264;2023-05-29T06:32:43;7;7;
78063;PMS5003;67429;51.596;-3.264;2023-05-29T06:35:09;7;7;
78063;PMS5003;67429;51.596;-3.264;2023-05-29T06:37:35;5;5;
78063;PMS5003;67429;51.596;-3.264;2023-05-29T06:40:00;5;5;
78063;PMS5003;67429;51.596;-3.264;2023-05-29T06:42:26;5;5;
78063;PMS5003;67429;51.596;-3.264;2023-05-29T06:44:51;5;5;
78063;PMS5003;67429;51.596;-3.264;2023-05-29T06:47:17;5;5;
78063;PMS5003;67429;51.596;-3.264;2023-05-29T06:49:43;6;6;
78063;PMS5003;67429;51.596;-3.264;2023-05-29T06:52:08;4;4;
78063;PMS5003;67429;51.596;-3.264;2023-05-29T06:54:34;7;6;
78063;PMS5003;67429;51.596;-3.264;2023-05-29T06:57:00;5;5;
78063;PMS5003;67429;51.596;-3.264;2023-05-29T06:59:25;5;5;
78063;PMS5003;67429;51.596;-3.264;2023-05-29T07:01:51;6;6;
78063;PMS5003;67429;51.596;-3.264;2023-05-29T07:04:17;6;6;
78063;PMS5003;67429;51.596;-3.264;2023-05-29T07:06:42;4;4;
78063;PMS5003;67429;51.596;-3.264;2023-05-29T07:09:08;4;4;
78063;PMS5003;67429;51.596;-3.264;2023-05-29T07:11:34;6;6;
78063;PMS5003;67429;51.596;-3.264;2023-05-29T07:13:59;4;4;
78063;PMS5003;67429;51.596;-3.264;2023-05-29T07:16:25;8;8;
78063;PMS5003;67429;51.596;-3.264;2023-05-29T07:18:51;6;4;
78063;PMS5003;67429;51.596;-3.264;2023-05-29T07:21:16;7;7;
78063;PMS5003;67429;51.596;-3.264;2023-05-29T07:23:42;4;4;
78063;PMS5003;67429;51.596;-3.264;2023-05-29T07:26:07;6;6;
78063;PMS5003;67429;51.596;-3.264;2023-05-29T07:28:33;6;6;
78063;PMS5003;67429;51.596;-3.264;2023-05-29T07:30:59;5;5;
78063;PMS5003;67429;51.596;-3.264;2023-05-29T07:33:24;5;5;
78063;PMS5003;67429;51.596;-3.264;2023-05-29T07:35:50;6;6;
78063;PMS5003;67429;51.596;-3.264;2023-05-29T07:38:16;5;5;
78063;PMS5003;67429;51.596;-3.264;2023-05-29T07:40:41;4;4;
78063;PMS5003;67429;51.596;-3.264;2023-05-29T07:43:07;7;7;
78063;PMS5003;67429;51.596;-3.264;2023-05-29T07:45:32;6;5;
78063;PMS5003;67429;51.596;-3.264;2023-05-29T07:47:58;6;6;
78063;PMS5003;67429;51.596;-3.264;2023-05-29T07:50:24;7;4;
78063;PMS5003;67429;51.596;-3.264;2023-05-29T07:52:49;5;5;
78063;PMS5003;67429;51.596;-3.264;2023-05-29T07:55:15;7;7;
78063;PMS5003;67429;51.596;-3.264;2023-05-29T07:57:40;7;6;
78063;PMS5003;67429;51.596;-3.264;2023-05-29T08:00:06;5;4;
78063;PMS5003;67429;51.596;-3.264;2023-05-29T08:02:31;7;6;
78063;PMS5003;67429;51.596;-3.264;2023-05-29T08:04:56;3;3;
78063;PMS5003;67429;51.596;-3.264;2023-05-29T08:07:22;6;5;
78063;PMS5003;67429;51.596;-3.264;2023-05-29T08:09:47;7;7;
78063;PMS5003;67429;51.596;-3.264;2023-05-29T08:12:13;5;5;
78063;PMS5003;67429;51.596;-3.264;2023-05-29T08:14:38;5;5;
78063;PMS5003;67429;51.596;-3.264;2023-05-29T08:17:04;4;4;
78063;PMS5003;67429;51.596;-3.264;2023-05-29T08:19:29;6;6;
78063;PMS5003;67429;51.596;-3.264;2023-05-29T08:21:55;5;5;
78063;PMS5003;67429;51.596;-3.264;2023-05-29T08:24:21;5;5;
78063;PMS5003;67429;51.596;-3.264;2023-05-29T08:26:46;3;3;
78063;PMS5003;67429;51.596;-3.264;2023-05-29T08:29:12;5;5;
78063;PMS5003;67429;51.596;-3.264;2023-05-29T08:31:37;4;4;
78063;PMS5003;67429;51.596;-3.264;2023-05-29T08:34:03;6;5;
78063;PMS5003;67429;51.596;-3.264;2023-05-29T08:36:29;6;5;
78063;PMS5003;67429;51.596;-3.264;2023-05-29T08:38:54;5;4;
78063;PMS5003;67429;51.596;-3.264;2023-05-29T08:41:21;4;4;
78063;PMS5003;67429;51.596;-3.264;2023-05-29T08:43:46;5;4;
78063;PMS5003;67429;51.596;-3.264;2023-05-29T08:46:11;4;4;
78063;PMS5003;67429;51.596;-3.264;2023-05-29T08:48:37;3;3;
78063;PMS5003;67429;51.596;-3.264;2023-05-29T08:51:02;4;4;
78063;PMS5003;67429;51.596;-3.264;2023-05-29T08:53:27;4;4;
78063;PMS5003;67429;51.596;-3.264;2023-05-29T08:55:53;4;3;
78063;PMS5003;67429;51.596;-3.264;2023-05-29T08:58:19;4;4;
78063;PMS5003;67429;51.596;-3.264;2023-05-29T09:00:45;4;4;
78063;PMS5003;67429;51.596;-3.264;2023-05-29T09:03:10;4;4;
78063;PMS5003;67429;51.596;-3.264;2023-05-29T09:05:35;4;3;
78063;PMS5003;67429;51.596;-3.264;2023-05-29T09:08:01;3;3;
78063;PMS5003;67429;51.596;-3.264;2023-05-29T09:10:26;6;6;
78063;PMS5003;67429;51.596;-3.264;2023-05-29T09:12:52;6;4;
78063;PMS5003;67429;51.596;-3.264;2023-05-29T09:15:18;3;3;
78063;PMS5003;67429;51.596;-3.264;2023-05-29T09:17:43;4;4;
78063;PMS5003;67429;51.596;-3.264;2023-05-29T09:22:34;4;4;
78063;PMS5003;67429;51.596;-3.264;2023-05-29T09:25:00;4;4;
78063;PMS5003;67429;51.596;-3.264;2023-05-29T09:27:25;5;4;
78063;PMS5003;67429;51.596;-3.264;2023-05-29T09:29:51;4;4;
78063;PMS5003;67429;51.596;-3.264;2023-05-29T09:32:17;4;4;
78063;PMS5003;67429;51.596;-3.264;2023-05-29T09:34:42;4;4;
78063;PMS5003;67429;51.596;-3.264;2023-05-29T09:37:08;3;3;
78063;PMS5003;67429;51.596;-3.264;2023-05-29T09:39:33;6;6;
78063;PMS5003;67429;51.596;-3.264;2023-05-29T09:41:59;5;3;
78063;PMS5003;67429;51.596;-3.264;2023-05-29T09:44:24;4;4;
78063;PMS5003;67429;51.596;-3.264;2023-05-29T09:46:50;4;3;
78063;PMS5003;67429;51.596;-3.264;2023-05-29T09:49:15;5;4;
78063;PMS5003;67429;51.596;-3.264;2023-05-29T09:51:41;4;3;
78063;PMS5003;67429;51.596;-3.264;2023-05-29T09:54:13;3;3;
78063;PMS5003;67429;51.596;-3.264;2023-05-29T09:56:32;5;4;
78063;PMS5003;67429;51.596;-3.264;2023-05-29T09:58:57;5;5;
78063;PMS5003;67429;51.596;-3.264;2023-05-29T10:01:23;4;4;
78063;PMS5003;67429;51.596;-3.264;2023-05-29T10:03:49;5;5;
78063;PMS5003;67429;51.596;-3.264;2023-05-29T10:06:15;5;3;
78063;PMS5003;67429;51.596;-3.264;2023-05-29T10:08:41;4;4;
78063;PMS5003;67429;51.596;-3.264;2023-05-29T10:11:05;4;4;
78063;PMS5003;67429;51.596;-3.264;2023-05-29T10:13:31;5;4;
78063;PMS5003;67429;51.596;-3.264;2023-05-29T10:15:56;5;5;
78063;PMS5003;67429;51.596;-3.264;2023-05-29T10:18:23;5;5;
78063;PMS5003;67429;51.596;-3.264;2023-05-29T10:20:47;4;4;
78063;PMS5003;67429;51.596;-3.264;2023-05-29T10:23:13;5;5;
78063;PMS5003;67429;51.596;-3.264;2023-05-29T10:25:38;5;4;
78063;PMS5003;67429;51.596;-3.264;2023-05-29T10:28:04;6;5;
78063;PMS5003;67429;51.596;-3.264;2023-05-29T10:30:31;3;3;
78063;PMS5003;67429;51.596;-3.264;2023-05-29T10:32:59;4;4;
78063;PMS5003;67429;51.596;-3.264;2023-05-29T10:35:22;5;5;
78063;PMS5003;67429;51.596;-3.264;2023-05-29T10:37:47;6;5;
78063;PMS5003;67429;51.596;-3.264;2023-05-29T10:40:12;6;6;
78063;PMS5003;67429;51.596;-3.264;2023-05-29T10:42:41;3;3;
78063;PMS5003;67429;51.596;-3.264;2023-05-29T10:45:03;5;5;
78063;PMS5003;67429;51.596;-3.264;2023-05-29T10:47:28;6;6;
78063;PMS5003;67429;51.596;-3.264;2023-05-29T10:49:54;5;5;
78063;PMS5003;67429;51.596;-3.264;2023-05-29T10:52:19;6;6;
78063;PMS5003;67429;51.596;-3.264;2023-05-29T10:54:50;6;4;
78063;PMS5003;67429;51.596;-3.264;2023-05-29T10:57:10;3;3;
78063;PMS5003;67429;51.596;-3.264;2023-05-29T10:59:36;5;5;
78063;PMS5003;67429;51.596;-3.264;2023-05-29T11:02:01;5;5;
78063;PMS5003;67429;51.596;-3.264;2023-05-29T11:04:28;7;6;
78063;PMS5003;67429;51.596;-3.264;2023-05-29T11:06:52;4;4;
78063;PMS5003;67429;51.596;-3.264;2023-05-29T11:11:43;7;7;
78063;PMS5003;67429;51.596;-3.264;2023-05-29T11:14:09;5;5;
78063;PMS5003;67429;51.596;-3.264;2023-05-29T11:16:36;4;4;
78063;PMS5003;67429;51.596;-3.264;2023-05-29T11:19:03;4;4;
78063;PMS5003;67429;51.596;-3.264;2023-05-29T11:21:29;5;5;
78063;PMS5003;67429;51.596;-3.264;2023-05-29T11:23:51;5;4;
78063;PMS5003;67429;51.596;-3.264;2023-05-29T11:26:16;5;5;
78063;PMS5003;67429;51.596;-3.264;2023-05-29T11:28:42;6;5;
78063;PMS5003;67429;51.596;-3.264;2023-05-29T11:31:07;5;5;
78063;PMS5003;67429;51.596;-3.264;2023-05-29T11:33:33;5;5;
78063;PMS5003;67429;51.596;-3.264;2023-05-29T11:35:59;6;5;
78063;PMS5003;67429;51.596;-3.264;2023-05-29T11:38:24;5;5;
78063;PMS5003;67429;51.596;-3.264;2023-05-29T11:40:49;6;5;
78063;PMS5003;67429;51.596;-3.264;2023-05-29T11:43:14;5;5;
78063;PMS5003;67429;51.596;-3.264;2023-05-29T11:45:40;5;4;
78063;PMS5003;67429;51.596;-3.264;2023-05-29T11:48:05;4;4;
78063;PMS5003;67429;51.596;-3.264;2023-05-29T11:50:32;6;5;
78063;PMS5003;67429;51.596;-3.264;2023-05-29T11:52:57;5;5;
78063;PMS5003;67429;51.596;-3.264;2023-05-29T11:55:22;5;4;
78063;PMS5003;67429;51.596;-3.264;2023-05-29T11:57:47;5;5;
78063;PMS5003;67429;51.596;-3.264;2023-05-29T12:00:14;5;4;
78063;PMS5003;67429;51.596;-3.264;2023-05-29T12:02:38;5;4;
78063;PMS5003;67429;51.596;-3.264;2023-05-29T12:05:04;5;5;
78063;PMS5003;67429;51.596;-3.264;2023-05-29T12:07:30;3;3;
78063;PMS5003;67429;51.596;-3.264;2023-05-29T12:09:55;4;4;
78063;PMS5003;67429;51.596;-3.264;2023-05-29T12:12:21;4;4;
78063;PMS5003;67429;51.596;-3.264;2023-05-29T12:14:49;4;4;
78063;PMS5003;67429;51.596;-3.264;2023-05-29T12:17:12;4;4;
78063;PMS5003;67429;51.596;-3.264;2023-05-29T12:19:37;5;4;
78063;PMS5003;67429;51.596;-3.264;2023-05-29T12:22:02;3;3;
78063;PMS5003;67429;51.596;-3.264;2023-05-29T12:24:28;4;4;
78063;PMS5003;67429;51.596;-3.264;2023-05-29T12:26:53;4;4;
78063;PMS5003;67429;51.596;-3.264;2023-05-29T12:29:19;6;5;
78063;PMS5003;67429;51.596;-3.264;2023-05-29T12:31:44;5;5;
78063;PMS5003;67429;51.596;-3.264;2023-05-29T12:34:11;4;4;
78063;PMS5003;67429;51.596;-3.264;2023-05-29T12:36:35;6;4;
78063;PMS5003;67429;51.596;-3.264;2023-05-29T12:39:04;4;4;
78063;PMS5003;67429;51.596;-3.264;2023-05-29T12:41:26;5;5;
78063;PMS5003;67429;51.596;-3.264;2023-05-29T12:43:52;4;4;
78063;PMS5003;67429;51.596;-3.264;2023-05-29T12:46:16;5;5;
78063;PMS5003;67429;51.596;-3.264;2023-05-29T12:48:42;7;6;
78063;PMS5003;67429;51.596;-3.264;2023-05-29T12:51:07;6;4;
78063;PMS5003;67429;51.596;-3.264;2023-05-29T12:53:33;3;3;
78063;PMS5003;67429;51.596;-3.264;2023-05-29T12:55:58;5;5;
78063;PMS5003;67429;51.596;-3.264;2023-05-29T12:58:24;5;5;
78063;PMS5003;67429;51.596;-3.264;2023-05-29T13:00:52;3;3;
78063;PMS5003;67429;51.596;-3.264;2023-05-29T13:03:15;5;5;
78063;PMS5003;67429;51.596;-3.264;2023-05-29T13:05:40;4;4;
78063;PMS5003;67429;51.596;-3.264;2023-05-29T13:08:06;4;4;
78063;PMS5003;67429;51.596;-3.264;2023-05-29T13:10:31;6;6;
78063;PMS5003;67429;51.596;-3.264;2023-05-29T13:12:57;6;5;
78063;PMS5003;67429;51.596;-3.264;2023-05-29T13:15:23;6;5;
78063;PMS5003;67429;51.596;-3.264;2023-05-29T13:17:49;3;3;
78063;PMS5003;67429;51.596;-3.264;2023-05-29T13:20:14;8;7;
78063;PMS5003;67429;51.596;-3.264;2023-05-29T13:22:39;5;4;
78063;PMS5003;67429;51.596;-3.264;2023-05-29T13:25:05;4;3;
78063;PMS5003;67429;51.596;-3.264;2023-05-29T13:27:30;5;5;
78063;PMS5003;67429;51.596;-3.264;2023-05-29T13:29:55;5;5;
78063;PMS5003;67429;51.596;-3.264;2023-05-29T13:32:21;4;4;
78063;PMS5003;67429;51.596;-3.264;2023-05-29T13:34:46;6;6;
78063;PMS5003;67429;51.596;-3.264;2023-05-29T13:37:12;4;4;
78063;PMS5003;67429;51.596;-3.264;2023-05-29T13:39:37;5;5;
78063;PMS5003;67429;51.596;-3.264;2023-05-29T13:42:03;5;5;
78063;PMS5003;67429;51.596;-3.264;2023-05-29T13:44:28;4;4;
78063;PMS5003;67429;51.596;-3.264;2023-05-29T13:46:54;6;5;
78063;PMS5003;67429;51.596;-3.264;2023-05-29T13:49:19;5;5;
78063;PMS5003;67429;51.596;-3.264;2023-05-29T13:51:44;5;5;
78063;PMS5003;67429;51.596;-3.264;2023-05-29T13:54:10;5;5;
78063;PMS5003;67429;51.596;-3.264;2023-05-29T13:56:35;5;5;
78063;PMS5003;67429;51.596;-3.264;2023-05-29T13:59:01;4;4;
78063;PMS5003;67429;51.596;-3.264;2023-05-29T14:01:26;7;6;
78063;PMS5003;67429;51.596;-3.264;2023-05-29T14:03:52;5;5;
78063;PMS5003;67429;51.596;-3.264;2023-05-29T14:06:17;5;5;
78063;PMS5003;67429;51.596;-3.264;2023-05-29T14:08:43;7;6;
78063;PMS5003;67429;51.596;-3.264;2023-05-29T14:11:09;4;4;
78063;PMS5003;67429;51.596;-3.264;2023-05-29T14:13:34;7;5;
78063;PMS5003;67429;51.596;-3.264;2023-05-29T14:15:59;3;3;
78063;PMS5003;67429;51.596;-3.264;2023-05-29T14:18:25;7;7;
78063;PMS5003;67429;51.596;-3.264;2023-05-29T14:20:50;4;4;
78063;PMS5003;67429;51.596;-3.264;2023-05-29T14:23:16;6;5;
78063;PMS5003;67429;51.596;-3.264;2023-05-29T14:25:41;4;4;
78063;PMS5003;67429;51.596;-3.264;2023-05-29T14:28:07;4;4;
78063;PMS5003;67429;51.596;-3.264;2023-05-29T14:30:32;6;6;
78063;PMS5003;67429;51.596;-3.264;2023-05-29T14:32:58;6;5;
78063;PMS5003;67429;51.596;-3.264;2023-05-29T14:35:23;4;4;
78063;PMS5003;67429;51.596;-3.264;2023-05-29T14:37:49;5;5;
78063;PMS5003;67429;51.596;-3.264;2023-05-29T14:40:14;6;6;
78063;PMS5003;67429;51.596;-3.264;2023-05-29T14:42:39;4;4;
78063;PMS5003;67429;51.596;-3.264;2023-05-29T14:45:06;4;4;
78063;PMS5003;67429;51.596;-3.264;2023-05-29T14:47:30;5;4;
78063;PMS5003;67429;51.596;-3.264;2023-05-29T14:49:56;5;5;
78063;PMS5003;67429;51.596;-3.264;2023-05-29T14:52:22;5;5;
78063;PMS5003;67429;51.596;-3.264;2023-05-29T14:54:47;5;4;
78063;PMS5003;67429;51.596;-3.264;2023-05-29T14:57:13;5;5;
78063;PMS5003;67429;51.596;-3.264;2023-05-29T14:59:38;5;5;
78063;PMS5003;67429;51.596;-3.264;2023-05-29T15:02:03;5;5;
78063;PMS5003;67429;51.596;-3.264;2023-05-29T15:04:29;6;6;
78063;PMS5003;67429;51.596;-3.264;2023-05-29T15:06:54;4;3;
78063;PMS5003;67429;51.596;-3.264;2023-05-29T15:09:20;5;5;
78063;PMS5003;67429;51.596;-3.264;2023-05-29T15:11:45;5;5;
78063;PMS5003;67429;51.596;-3.264;2023-05-29T15:14:10;6;6;
78063;PMS5003;67429;51.596;-3.264;2023-05-29T15:16:36;6;6;
78063;PMS5003;67429;51.596;-3.264;2023-05-29T15:19:01;5;5;
78063;PMS5003;67429;51.596;-3.264;2023-05-29T15:21:27;5;4;
78063;PMS5003;67429;51.596;-3.264;2023-05-29T15:23:52;5;5;
78063;PMS5003;67429;51.596;-3.264;2023-05-29T15:26:18;4;4;
78063;PMS5003;67429;51.596;-3.264;2023-05-29T15:28:43;5;5;
78063;PMS5003;67429;51.596;-3.264;2023-05-29T15:31:08;6;6;
78063;PMS5003;67429;51.596;-3.264;2023-05-29T15:33:34;4;4;
78063;PMS5003;67429;51.596;-3.264;2023-05-29T15:35:59;6;6;
78063;PMS5003;67429;51.596;-3.264;2023-05-29T15:38:25;5;5;
78063;PMS5003;67429;51.596;-3.264;2023-05-29T15:40:50;5;4;
78063;PMS5003;67429;51.596;-3.264;2023-05-29T15:43:16;5;5;
78063;PMS5003;67429;51.596;-3.264;2023-05-29T15:45:41;5;5;
78063;PMS5003;67429;51.596;-3.264;2023-05-29T15:48:06;4;4;
78063;PMS5003;67429;51.596;-3.264;2023-05-29T15:50:32;4;4;
78063;PMS5003;67429;51.596;-3.264;2023-05-29T15:52:57;4;4;
78063;PMS5003;67429;51.596;-3.264;2023-05-29T15:55:23;6;6;
78063;PMS5003;67429;51.596;-3.264;2023-05-29T15:57:48;3;3;
78063;PMS5003;67429;51.596;-3.264;2023-05-29T16:00:14;6;6;
78063;PMS5003;67429;51.596;-3.264;2023-05-29T16:02:39;7;7;
78063;PMS5003;67429;51.596;-3.264;2023-05-29T16:05:05;4;4;
78063;PMS5003;67429;51.596;-3.264;2023-05-29T16:07:30;3;3;
78063;PMS5003;67429;51.596;-3.264;2023-05-29T16:09:55;6;5;
78063;PMS5003;67429;51.596;-3.264;2023-05-29T16:12:21;6;6;
78063;PMS5003;67429;51.596;-3.264;2023-05-29T16:14:46;4;4;
78063;PMS5003;67429;51.596;-3.264;2023-05-29T16:17:12;5;5;
78063;PMS5003;67429;51.596;-3.264;2023-05-29T16:19:37;5;5;
78063;PMS5003;67429;51.596;-3.264;2023-05-29T16:22:03;4;3;
78063;PMS5003;67429;51.596;-3.264;2023-05-29T16:24:28;5;5;